Minerva Zenia — SYNB — position and weather

sailwx.info

Track history (hours):
 
Tides and Currents Weather Stations Pressure Air Temp Water Temp Dewpoint Dewpoint Depression Visibility Wind Speed Wind Dir Waves Ship Positions

Minerva Zenia

Last reported at 2015-Jul-30 09:33 UTC. Time now 2015-Aug-01 13:50 UTC.
Position N 43°40' E 034°05'.

Length 248 m; draft 13.7 m.

Type: Ship (hazmat cat A). MMSI: 240014000.

Date/timePositionNaut miles runAvg speedWind from/ knotsBaromVisibWave heightAir tempDewpointWater temp
2015-Jul-30 09:33N 43°40' E 034°05'1313.1
2015-Jul-30 08:33N 43°47' E 034°20'1313.2
2015-Jul-30 07:33N 43°54' E 034°35'1313.4
2015-Jul-30 06:33N 44°00' E 034°51'1313.4
2015-Jul-30 05:33N 44°07' E 035°08'1212.5
2015-Jul-30 04:33N 44°14' E 035°22'1312.6
2015-Jul-30 03:34N 44°22' E 035°36'1312.9
2015-Jul-30 02:34N 44°28' E 035°51'1312.9
2015-Jul-30 01:33N 44°35' E 036°07'1312.8
2015-Jul-30 00:30N 44°43' E 036°22'1111.9
2015-Jul-29 23:34N 44°51' E 036°34'1211.9
2015-Jul-29 22:33N 45°03' E 036°33'3 0.5
2015-Jul-29 17:33N 45°05' E 036°33'0 0.0
2015-Jul-29 16:33N 45°05' E 036°33'0 0.0
2015-Jul-29 15:33N 45°05' E 036°33'0 0.0
2015-Jul-29 14:30N 45°05' E 036°33'0 0.0
2015-Jul-29 10:33N 45°05' E 036°33'0 0.0
2015-Jul-29 09:33N 45°05' E 036°33'0 0.1
2015-Jul-29 08:33N 45°05' E 036°33'0 0.0
2015-Jul-29 07:33N 45°05' E 036°33'0 0.0
2015-Jul-29 06:33N 45°05' E 036°33'0 0.0
2015-Jul-29 05:33N 45°05' E 036°33'0 0.0
2015-Jul-29 04:33N 45°05' E 036°33'0 0.0
2015-Jul-29 03:33N 45°05' E 036°33'0 0.0
2015-Jul-29 00:21N 45°05' E 036°33'0 0.0
2015-Jul-28 23:09N 45°05' E 036°33'0 0.0
2015-Jul-28 22:27N 45°05' E 036°33'1 0.1
2015-Jul-28 15:07N 45°06' E 036°34'0 0.0
2015-Jul-28 13:22N 45°06' E 036°34'0 0.0
2015-Jul-28 12:31N 45°06' E 036°34'0 0.1
2015-Jul-28 11:31N 45°06' E 036°34'0 0.0
2015-Jul-28 10:10N 45°06' E 036°34'0 0.0
2015-Jul-28 03:25N 45°06' E 036°34'0 0.0
2015-Jul-27 23:28N 45°06' E 036°34'0 0.1
2015-Jul-27 22:28N 45°06' E 036°34'0 0.1
2015-Jul-27 21:25N 45°06' E 036°34'0 0.0
2015-Jul-27 20:31N 45°06' E 036°34'1 0.2
2015-Jul-27 15:20N 45°07' E 036°34'0 0.0
2015-Jul-27 14:32N 45°07' E 036°34'0 0.0
2015-Jul-27 13:32N 45°07' E 036°34'0 0.0
2015-Jul-27 12:32N 45°07' E 036°34'0 0.0
2015-Jul-27 10:32N 45°07' E 036°34'0 0.0
2015-Jul-27 09:32N 45°07' E 036°34'0 0.0
2015-Jul-27 07:29N 45°07' E 036°34'0 0.2
2015-Jul-27 06:14N 45°06' E 036°34'0 0.0
2015-Jul-27 05:32N 45°06' E 036°34'0 0.0
2015-Jul-27 04:32N 45°06' E 036°34'0 0.0
2015-Jul-27 02:23N 45°06' E 036°34'0 0.0
2015-Jul-27 00:32N 45°06' E 036°34'0 0.0
2015-Jul-26 23:32N 45°06' E 036°34'0 0.0
2015-Jul-26 22:20N 45°06' E 036°34'1 0.7
2015-Jul-26 21:31N 45°06' E 036°33'7 7.5
2015-Jul-26 20:33N 44°59' E 036°31'6 6.4
2015-Jul-26 19:33N 44°53' E 036°35'1010.5
2015-Jul-26 18:33N 45°04' E 036°37'4 4.0
2015-Jul-26 17:33N 45°07' E 036°40'0 0.0
2015-Jul-26 16:33N 45°07' E 036°40'0 0.0
2015-Jul-26 15:33N 45°07' E 036°40'0 0.0
2015-Jul-26 14:30N 45°07' E 036°40'0 0.0
2015-Jul-26 13:33N 45°07' E 036°40'0 0.0
2015-Jul-26 12:33N 45°07' E 036°40'0 0.0
2015-Jul-26 11:33N 45°07' E 036°40'0 0.0
2015-Jul-26 10:33N 45°07' E 036°40'0 0.0
2015-Jul-26 09:30N 45°07' E 036°40'0 0.0
2015-Jul-26 08:33N 45°07' E 036°40'0 0.0
2015-Jul-25 21:18N 45°07' E 036°40'0 0.0
2015-Jul-25 20:33N 45°07' E 036°40'0 0.0
2015-Jul-25 19:15N 45°07' E 036°40'0 0.0
2015-Jul-25 18:33N 45°07' E 036°40'0 0.0
2015-Jul-25 17:33N 45°07' E 036°40'0 0.0
2015-Jul-25 16:33N 45°07' E 036°40'0 0.0
2015-Jul-25 15:33N 45°07' E 036°40'0 0.0
2015-Jul-25 14:33N 45°07' E 036°40'0 0.0
2015-Jul-25 13:33N 45°07' E 036°40'45 1.7
2015-Jul-24 11:34N 44°26' E 036°14'1312.7
2015-Jul-24 10:33N 44°21' E 035°58'3611.9
2015-Jul-24 07:33N 44°08' E 035°11'1111.1
2015-Jul-24 06:32N 44°04' E 034°56'1111.5
2015-Jul-24 05:33N 43°60' E 034°42'3 3.2
2015-Jul-24 04:33N 43°57' E 034°39'1 1.4
2015-Jul-24 03:34N 43°57' E 034°41'2 1.2
2015-Jul-24 01:33N 43°56' E 034°44'1 1.1
2015-Jul-24 00:33N 43°56' E 034°45'1 1.1
2015-Jul-23 23:34N 43°55' E 034°47'1 1.2
2015-Jul-23 22:34N 43°54' E 034°48'1 1.2
2015-Jul-23 21:33N 43°54' E 034°49'1 1.2
2015-Jul-23 20:33N 43°53' E 034°51'1 1.2
2015-Jul-23 19:33N 43°52' E 034°52'1 1.3
2015-Jul-23 18:33N 43°52' E 034°53'1 1.1
2015-Jul-23 17:33N 43°51' E 034°55'3 3.1
2015-Jul-23 16:33N 43°49' E 034°52'1110.8
2015-Jul-23 15:33N 43°43' E 034°39'1110.7
2015-Jul-23 14:33N 43°37' E 034°27'29010.0
2015-Jul-22 09:33N 40°58' E 028°59'10 9.0
2015-Jul-22 08:25N 40°49' E 028°52'7 7.0
2015-Jul-22 07:26N 40°56' E 028°52'102 4.4
2015-Jul-21 08:10N 40°25' E 026°44'6110.2
2015-Jul-21 02:06N 39°40' E 025°50'  
Track history (hours):
 
Tides and Currents Weather Stations Pressure Air Temp Water Temp Dewpoint Dewpoint Depression Visibility Wind Speed Wind Dir Waves Ship Positions

Minerva Zenia

Last reported at 2015-Jul-30 09:33 UTC. Time now 2015-Aug-01 13:50 UTC.
Position N 43°40' E 034°05'.

Length 248 m; draft 13.7 m.

Type: Ship (hazmat cat A). MMSI: 240014000.

Date/timePositionNaut miles runAvg speedWind from/ knotsBaromVisibWave heightAir tempDewpointWater temp
2015-Jul-30 09:33N 43°40' E 034°05'1313.1
2015-Jul-30 08:33N 43°47' E 034°20'1313.2
2015-Jul-30 07:33N 43°54' E 034°35'1313.4
2015-Jul-30 06:33N 44°00' E 034°51'1313.4
2015-Jul-30 05:33N 44°07' E 035°08'1212.5
2015-Jul-30 04:33N 44°14' E 035°22'1312.6
2015-Jul-30 03:34N 44°22' E 035°36'1312.9
2015-Jul-30 02:34N 44°28' E 035°51'1312.9
2015-Jul-30 01:33N 44°35' E 036°07'1312.8
2015-Jul-30 00:30N 44°43' E 036°22'1111.9
2015-Jul-29 23:34N 44°51' E 036°34'1211.9
2015-Jul-29 22:33N 45°03' E 036°33'3 0.5
2015-Jul-29 17:33N 45°05' E 036°33'0 0.0
2015-Jul-29 16:33N 45°05' E 036°33'0 0.0
2015-Jul-29 15:33N 45°05' E 036°33'0 0.0
2015-Jul-29 14:30N 45°05' E 036°33'0 0.0
2015-Jul-29 10:33N 45°05' E 036°33'0 0.0
2015-Jul-29 09:33N 45°05' E 036°33'0 0.1
2015-Jul-29 08:33N 45°05' E 036°33'0 0.0
2015-Jul-29 07:33N 45°05' E 036°33'0 0.0
2015-Jul-29 06:33N 45°05' E 036°33'0 0.0
2015-Jul-29 05:33N 45°05' E 036°33'0 0.0
2015-Jul-29 04:33N 45°05' E 036°33'0 0.0
2015-Jul-29 03:33N 45°05' E 036°33'0 0.0
2015-Jul-29 00:21N 45°05' E 036°33'0 0.0
2015-Jul-28 23:09N 45°05' E 036°33'0 0.0
2015-Jul-28 22:27N 45°05' E 036°33'1 0.1
2015-Jul-28 15:07N 45°06' E 036°34'0 0.0
2015-Jul-28 13:22N 45°06' E 036°34'0 0.0
2015-Jul-28 12:31N 45°06' E 036°34'0 0.1
2015-Jul-28 11:31N 45°06' E 036°34'0 0.0
2015-Jul-28 10:10N 45°06' E 036°34'0 0.0
2015-Jul-28 03:25N 45°06' E 036°34'0 0.0
2015-Jul-27 23:28N 45°06' E 036°34'0 0.1
2015-Jul-27 22:28N 45°06' E 036°34'0 0.1
2015-Jul-27 21:25N 45°06' E 036°34'0 0.0
2015-Jul-27 20:31N 45°06' E 036°34'1 0.2
2015-Jul-27 15:20N 45°07' E 036°34'0 0.0
2015-Jul-27 14:32N 45°07' E 036°34'0 0.0
2015-Jul-27 13:32N 45°07' E 036°34'0 0.0
2015-Jul-27 12:32N 45°07' E 036°34'0 0.0
2015-Jul-27 10:32N 45°07' E 036°34'0 0.0
2015-Jul-27 09:32N 45°07' E 036°34'0 0.0
2015-Jul-27 07:29N 45°07' E 036°34'0 0.2
2015-Jul-27 06:14N 45°06' E 036°34'0 0.0
2015-Jul-27 05:32N 45°06' E 036°34'0 0.0
2015-Jul-27 04:32N 45°06' E 036°34'0 0.0
2015-Jul-27 02:23N 45°06' E 036°34'0 0.0
2015-Jul-27 00:32N 45°06' E 036°34'0 0.0
2015-Jul-26 23:32N 45°06' E 036°34'0 0.0
2015-Jul-26 22:20N 45°06' E 036°34'1 0.7
2015-Jul-26 21:31N 45°06' E 036°33'7 7.5
2015-Jul-26 20:33N 44°59' E 036°31'6 6.4
2015-Jul-26 19:33N 44°53' E 036°35'1010.5
2015-Jul-26 18:33N 45°04' E 036°37'4 4.0
2015-Jul-26 17:33N 45°07' E 036°40'0 0.0
2015-Jul-26 16:33N 45°07' E 036°40'0 0.0
2015-Jul-26 15:33N 45°07' E 036°40'0 0.0
2015-Jul-26 14:30N 45°07' E 036°40'0 0.0
2015-Jul-26 13:33N 45°07' E 036°40'0 0.0
2015-Jul-26 12:33N 45°07' E 036°40'0 0.0
2015-Jul-26 11:33N 45°07' E 036°40'0 0.0
2015-Jul-26 10:33N 45°07' E 036°40'0 0.0
2015-Jul-26 09:30N 45°07' E 036°40'0 0.0
2015-Jul-26 08:33N 45°07' E 036°40'0 0.0
2015-Jul-25 21:18N 45°07' E 036°40'0 0.0
2015-Jul-25 20:33N 45°07' E 036°40'0 0.0
2015-Jul-25 19:15N 45°07' E 036°40'0 0.0
2015-Jul-25 18:33N 45°07' E 036°40'0 0.0
2015-Jul-25 17:33N 45°07' E 036°40'0 0.0
2015-Jul-25 16:33N 45°07' E 036°40'0 0.0
2015-Jul-25 15:33N 45°07' E 036°40'0 0.0
2015-Jul-25 14:33N 45°07' E 036°40'0 0.0
2015-Jul-25 13:33N 45°07' E 036°40'45 1.7
2015-Jul-24 11:34N 44°26' E 036°14'1312.7
2015-Jul-24 10:33N 44°21' E 035°58'3611.9
2015-Jul-24 07:33N 44°08' E 035°11'1111.1
2015-Jul-24 06:32N 44°04' E 034°56'1111.5
2015-Jul-24 05:33N 43°60' E 034°42'3 3.2
2015-Jul-24 04:33N 43°57' E 034°39'1 1.4
2015-Jul-24 03:34N 43°57' E 034°41'2 1.2
2015-Jul-24 01:33N 43°56' E 034°44'1 1.1
2015-Jul-24 00:33N 43°56' E 034°45'1 1.1
2015-Jul-23 23:34N 43°55' E 034°47'1 1.2
2015-Jul-23 22:34N 43°54' E 034°48'1 1.2
2015-Jul-23 21:33N 43°54' E 034°49'1 1.2
2015-Jul-23 20:33N 43°53' E 034°51'1 1.2
2015-Jul-23 19:33N 43°52' E 034°52'1 1.3
2015-Jul-23 18:33N 43°52' E 034°53'1 1.1
2015-Jul-23 17:33N 43°51' E 034°55'3 3.1
2015-Jul-23 16:33N 43°49' E 034°52'1110.8
2015-Jul-23 15:33N 43°43' E 034°39'1110.7
2015-Jul-23 14:33N 43°37' E 034°27'29010.0
2015-Jul-22 09:33N 40°58' E 028°59'10 9.0
2015-Jul-22 08:25N 40°49' E 028°52'7 7.0
2015-Jul-22 07:26N 40°56' E 028°52'102 4.4
2015-Jul-21 08:10N 40°25' E 026°44'6110.2
2015-Jul-21 02:06N 39°40' E 025°50'  

Dump ship's entire track history